John_paul K — PBHY — position and weather

sailwx.info

Track history (hours):
 
Tides and Currents Weather Stations Pressure Air Temp Water Temp Dewpoint Dewpoint Depression Visibility Wind Speed Wind Dir Waves Ship Positions

John_paul K

Last reported at 2014-Nov-20 19:12 UTC. Time now 2014-Nov-21 20:28 UTC.
Position N 37°59' E 002°37'.

Length 90 m; draft 5.7 m.

Type: Cargo ship. MMSI: 245181000.

Date/timePositionNaut miles runAvg speedWind from/ knotsBaromVisibWave heightAir tempDewpointWater temp
2014-Nov-20 19:12N 37°59' E 002°37'7 9.4
2014-Nov-20 18:25N 38°02' E 002°45'21 9.4
2014-Nov-20 16:12N 38°10' E 003°10'5 8.0
2014-Nov-20 15:33N 38°12' E 003°16'24 9.8
2014-Nov-20 13:04N 38°21' E 003°45'2010.0
2014-Nov-20 11:06N 38°28' E 004°08'207 9.6
2014-Nov-19 13:26N 39°46' E 008°16'  
2014-Nov-14 22:07N 39°49' E 008°17'4 7.7
2014-Nov-14 21:33N 39°51' E 008°12'219 8.6
2014-Nov-13 20:11N 43°13' E 010°06'6 9.4
2014-Nov-13 19:32N 43°19' E 010°08'11 9.4
2014-Nov-13 18:20N 43°30' E 010°12'5 7.0
2014-Nov-13 17:33N 43°33' E 010°18'0 0.0
2014-Nov-13 16:33N 43°33' E 010°18'0 0.0
2014-Nov-13 15:33N 43°33' E 010°18'0 0.0
2014-Nov-13 14:33N 43°33' E 010°18'0 0.0
2014-Nov-13 13:33N 43°33' E 010°18'0 0.0
2014-Nov-13 12:33N 43°33' E 010°18'0 0.0
2014-Nov-13 11:33N 43°33' E 010°18'0 0.0
2014-Nov-13 10:33N 43°33' E 010°18'0 0.0
2014-Nov-13 09:33N 43°33' E 010°18'0 0.0
2014-Nov-13 08:33N 43°33' E 010°18'0 0.0
2014-Nov-13 07:30N 43°33' E 010°18'0 0.0
2014-Nov-13 06:33N 43°33' E 010°18'0 0.0
2014-Nov-13 05:33N 43°33' E 010°18'2 1.8
2014-Nov-13 04:33N 43°32' E 010°16'4 4.5
2014-Nov-13 03:33N 43°28' E 010°13'7 7.3
2014-Nov-13 02:33N 43°21' E 010°12'8 8.0
2014-Nov-13 01:33N 43°13' E 010°10'212 8.4
2014-Nov-12 00:18N 40°39' E 013°26'17 9.9
2014-Nov-11 22:33N 40°34' E 013°48'1010.1
2014-Nov-11 21:33N 40°32' E 014°01'1210.8
2014-Nov-11 20:27N 40°31' E 014°16'1211.5
2014-Nov-11 19:23N 40°35' E 014°32'  
Track history (hours):
 
Tides and Currents Weather Stations Pressure Air Temp Water Temp Dewpoint Dewpoint Depression Visibility Wind Speed Wind Dir Waves Ship Positions

John_paul K

Last reported at 2014-Nov-20 19:12 UTC. Time now 2014-Nov-21 20:28 UTC.
Position N 37°59' E 002°37'.

Length 90 m; draft 5.7 m.

Type: Cargo ship. MMSI: 245181000.

Date/timePositionNaut miles runAvg speedWind from/ knotsBaromVisibWave heightAir tempDewpointWater temp
2014-Nov-20 19:12N 37°59' E 002°37'7 9.4
2014-Nov-20 18:25N 38°02' E 002°45'21 9.4
2014-Nov-20 16:12N 38°10' E 003°10'5 8.0
2014-Nov-20 15:33N 38°12' E 003°16'24 9.8
2014-Nov-20 13:04N 38°21' E 003°45'2010.0
2014-Nov-20 11:06N 38°28' E 004°08'207 9.6
2014-Nov-19 13:26N 39°46' E 008°16'  
2014-Nov-14 22:07N 39°49' E 008°17'4 7.7
2014-Nov-14 21:33N 39°51' E 008°12'219 8.6
2014-Nov-13 20:11N 43°13' E 010°06'6 9.4
2014-Nov-13 19:32N 43°19' E 010°08'11 9.4
2014-Nov-13 18:20N 43°30' E 010°12'5 7.0
2014-Nov-13 17:33N 43°33' E 010°18'0 0.0
2014-Nov-13 16:33N 43°33' E 010°18'0 0.0
2014-Nov-13 15:33N 43°33' E 010°18'0 0.0
2014-Nov-13 14:33N 43°33' E 010°18'0 0.0
2014-Nov-13 13:33N 43°33' E 010°18'0 0.0
2014-Nov-13 12:33N 43°33' E 010°18'0 0.0
2014-Nov-13 11:33N 43°33' E 010°18'0 0.0
2014-Nov-13 10:33N 43°33' E 010°18'0 0.0
2014-Nov-13 09:33N 43°33' E 010°18'0 0.0
2014-Nov-13 08:33N 43°33' E 010°18'0 0.0
2014-Nov-13 07:30N 43°33' E 010°18'0 0.0
2014-Nov-13 06:33N 43°33' E 010°18'0 0.0
2014-Nov-13 05:33N 43°33' E 010°18'2 1.8
2014-Nov-13 04:33N 43°32' E 010°16'4 4.5
2014-Nov-13 03:33N 43°28' E 010°13'7 7.3
2014-Nov-13 02:33N 43°21' E 010°12'8 8.0
2014-Nov-13 01:33N 43°13' E 010°10'212 8.4
2014-Nov-12 00:18N 40°39' E 013°26'17 9.9
2014-Nov-11 22:33N 40°34' E 013°48'1010.1
2014-Nov-11 21:33N 40°32' E 014°01'1210.8
2014-Nov-11 20:27N 40°31' E 014°16'1211.5
2014-Nov-11 19:23N 40°35' E 014°32'  

Dump ship's entire track history